createdAt,value
2019-05-22T00:00:29.522Z,20.10
2019-05-22T00:03:00.298Z,20.25
2019-05-22T00:05:31.979Z,18.23
2019-05-22T00:08:01.423Z,19.95
2019-05-22T00:10:31.753Z,18.60
2019-05-22T00:13:00.531Z,18.85
2019-05-22T00:15:30.528Z,19.25
2019-05-22T00:18:01.497Z,19.82
2019-05-22T00:20:31.032Z,20.70
2019-05-22T00:23:01.777Z,20.20
2019-05-22T00:25:33.115Z,21.87
2019-05-22T00:28:02.200Z,20.80
2019-05-22T00:30:32.670Z,19.30
2019-05-22T00:33:02.257Z,20.45
2019-05-22T00:35:31.430Z,19.60
2019-05-22T00:38:01.673Z,21.48
2019-05-22T00:40:31.801Z,21.02
2019-05-22T00:43:04.119Z,18.23
2019-05-22T00:45:31.303Z,22.40
2019-05-22T00:48:00.280Z,19.85
2019-05-22T00:50:32.786Z,20.95
2019-05-22T00:53:02.962Z,21.05
2019-05-22T00:55:37.064Z,19.13
2019-05-22T00:58:07.947Z,19.48
2019-05-22T01:00:39.914Z,20.27
2019-05-22T01:03:10.024Z,17.85
2019-05-22T01:05:41.697Z,22.15
2019-05-22T01:08:13.750Z,19.85
2019-05-22T01:10:45.730Z,21.10
2019-05-22T01:13:15.277Z,21.70
2019-05-22T01:15:43.743Z,21.20
2019-05-22T01:18:15.323Z,20.52
2019-05-22T01:20:45.707Z,23.90
2019-05-22T01:23:16.153Z,22.00
2019-05-22T01:25:45.903Z,22.03
2019-05-22T01:28:15.962Z,22.77
2019-05-22T01:30:46.189Z,22.63
2019-05-22T01:33:16.411Z,22.25
2019-05-22T01:35:49.157Z,26.20
2019-05-22T01:38:18.904Z,23.62
2019-05-22T01:40:50.374Z,23.33
2019-05-22T01:43:21.845Z,23.40
2019-05-22T01:45:55.374Z,23.57
2019-05-22T01:48:27.461Z,26.62
2019-05-22T01:50:57.474Z,25.13
2019-05-22T01:53:31.494Z,25.43
2019-05-22T01:56:00.033Z,26.20
2019-05-22T01:58:30.647Z,22.52
2019-05-22T02:01:00.463Z,24.70
2019-05-22T02:03:30.682Z,25.72
2019-05-22T02:06:00.784Z,27.07
2019-05-22T02:08:29.822Z,26.42
2019-05-22T02:10:59.998Z,26.90
2019-05-22T02:13:42.165Z,23.85
2019-05-22T02:16:11.900Z,25.93
2019-05-22T02:18:41.921Z,25.77
2019-05-22T02:21:11.360Z,26.60
2019-05-22T02:23:40.726Z,25.95
2019-05-22T02:26:10.835Z,26.07
2019-05-22T02:28:40.505Z,26.42
2019-05-22T02:31:08.975Z,25.53
2019-05-22T02:33:55.816Z,26.23
2019-05-22T02:36:25.014Z,25.80
2019-05-22T02:38:54.759Z,26.73
2019-05-22T02:41:24.857Z,28.30
2019-05-22T02:43:53.403Z,26.85
2019-05-22T02:46:22.938Z,25.00
2019-05-22T02:48:52.086Z,24.75
2019-05-22T02:51:20.859Z,25.50
2019-05-22T02:53:51.154Z,26.90
2019-05-22T02:56:19.706Z,26.80
2019-05-22T02:58:49.438Z,26.45
2019-05-22T03:01:17.917Z,27.47
2019-05-22T03:03:47.354Z,30.08
2019-05-22T03:06:16.718Z,28.67
2019-05-22T03:08:57.226Z,25.88
2019-05-22T03:11:28.402Z,25.53
2019-05-22T03:14:00.519Z,25.05
2019-05-22T03:16:44.100Z,24.40
2019-05-22T03:19:17.385Z,24.92
2019-05-22T03:21:46.163Z,26.97
2019-05-22T03:24:14.994Z,26.82
2019-05-22T03:26:50.817Z,24.17
2019-05-22T03:29:22.462Z,26.30
2019-05-22T03:31:50.971Z,24.90
2019-05-22T03:34:20.423Z,25.35
2019-05-22T03:36:48.990Z,27.32
2019-05-22T03:39:18.211Z,24.12
2019-05-22T03:41:47.286Z,26.47
2019-05-22T03:44:16.233Z,25.35
2019-05-22T03:46:46.172Z,25.73
2019-05-22T03:49:29.216Z,25.40
2019-05-22T03:51:47.438Z,26.60
2019-05-22T03:54:16.250Z,24.20
2019-05-22T03:56:44.746Z,23.73
2019-05-22T03:59:13.582Z,22.00
2019-05-22T04:01:43.226Z,24.37
2019-05-22T04:04:11.702Z,22.90
2019-05-22T04:06:40.278Z,22.77
2019-05-22T04:09:20.374Z,24.20
2019-05-22T04:11:49.914Z,23.53
2019-05-22T04:14:19.430Z,22.10
2019-05-22T04:16:49.670Z,25.80
2019-05-22T04:19:18.219Z,25.45
2019-05-22T04:21:47.665Z,21.80
2019-05-22T04:24:16.528Z,24.20
2019-05-22T04:26:45.199Z,25.12
2019-05-22T04:29:15.266Z,24.40
2019-05-22T04:31:50.977Z,23.80
2019-05-22T04:34:20.811Z,24.47
2019-05-22T04:36:53.965Z,22.15
2019-05-22T04:39:25.764Z,22.35
2019-05-22T04:41:55.068Z,24.00
2019-05-22T04:44:24.014Z,21.00
2019-05-22T04:46:52.780Z,22.02
2019-05-22T04:49:21.318Z,20.50
2019-05-22T04:51:50.401Z,24.20
2019-05-22T04:54:19.042Z,24.23
2019-05-22T04:56:47.896Z,23.50
2019-05-22T04:59:16.610Z,23.85
2019-05-22T05:01:46.208Z,19.77
2019-05-22T05:04:15.981Z,23.40
2019-05-22T05:06:45.523Z,20.77
2019-05-22T05:09:14.848Z,21.57
2019-05-22T05:11:43.678Z,23.87
2019-05-22T05:14:12.256Z,23.00
2019-05-22T05:16:40.881Z,24.40
2019-05-22T05:19:09.393Z,22.95
2019-05-22T05:21:38.425Z,25.90
2019-05-22T05:24:07.164Z,24.52
2019-05-22T05:26:37.544Z,24.80
2019-05-22T05:29:07.757Z,23.27
2019-05-22T05:31:36.395Z,24.53
2019-05-22T05:34:19.931Z,25.12
2019-05-22T05:36:48.534Z,22.77
2019-05-22T05:39:39.732Z,23.50
2019-05-22T05:42:08.209Z,22.20
2019-05-22T05:44:36.896Z,23.10
2019-05-22T05:47:07.117Z,23.53
2019-05-22T05:49:35.801Z,23.65
2019-05-22T05:52:05.905Z,24.40
2019-05-22T05:54:35.251Z,24.40
2019-05-22T05:57:12.817Z,22.60
2019-05-22T05:59:42.344Z,25.05
2019-05-22T06:02:11.194Z,23.07
2019-05-22T06:04:39.840Z,21.73
2019-05-22T06:07:17.520Z,24.43
2019-05-22T06:09:48.478Z,24.47
2019-05-22T06:12:16.949Z,25.00
2019-05-22T06:14:46.860Z,19.87
2019-05-22T06:17:31.242Z,22.10
2019-05-22T06:20:11.861Z,22.90
2019-05-22T06:22:41.690Z,22.50
2019-05-22T06:25:10.610Z,22.02
2019-05-22T06:27:43.681Z,22.33
2019-05-22T06:30:21.721Z,21.45
2019-05-22T06:33:12.112Z,21.87
2019-05-22T06:35:40.986Z,20.88
2019-05-22T06:38:29.488Z,22.60
2019-05-22T06:40:58.502Z,22.05
2019-05-22T06:43:30.223Z,20.17
2019-05-22T06:45:58.893Z,21.70
2019-05-22T06:48:27.379Z,21.70
2019-05-22T06:50:56.705Z,22.43
2019-05-22T06:53:25.246Z,21.30
2019-05-22T06:55:53.807Z,22.03
2019-05-22T06:58:22.550Z,20.17
2019-05-22T07:00:51.046Z,21.00
2019-05-22T07:03:20.672Z,21.07
2019-05-22T07:05:50.228Z,21.50
2019-05-22T07:08:18.782Z,22.05
2019-05-22T07:10:47.289Z,20.20
2019-05-22T07:13:16.833Z,21.67
2019-05-22T07:15:46.407Z,21.85
2019-05-22T07:18:16.268Z,19.73
2019-05-22T07:20:45.704Z,21.87
2019-05-22T07:23:15.867Z,20.72
2019-05-22T07:25:46.614Z,20.90
2019-05-22T07:28:18.158Z,22.05
2019-05-22T07:30:47.242Z,21.27
2019-05-22T07:33:16.052Z,19.80
2019-05-22T07:36:05.448Z,20.10
2019-05-22T07:38:15.778Z,18.17
2019-05-22T07:40:44.758Z,19.57
2019-05-22T07:43:14.032Z,18.95
2019-05-22T07:45:43.011Z,20.33
2019-05-22T07:48:13.778Z,18.52
2019-05-22T07:50:48.804Z,19.75
2019-05-22T07:53:17.336Z,18.95
2019-05-22T07:55:46.580Z,19.03
2019-05-22T07:58:16.682Z,18.45
2019-05-22T08:00:47.998Z,18.70
2019-05-22T08:03:16.984Z,19.37
2019-05-22T08:05:47.537Z,19.23
2019-05-22T08:08:18.750Z,19.15
2019-05-22T08:10:46.795Z,17.83
2019-05-22T08:13:15.402Z,16.30
2019-05-22T08:15:47.731Z,18.10
2019-05-22T08:18:16.099Z,19.95
2019-05-22T08:20:45.325Z,18.48
2019-05-22T08:23:14.040Z,19.02
2019-05-22T08:25:42.639Z,19.62
2019-05-22T08:28:11.457Z,17.75
2019-05-22T08:30:39.943Z,16.65
2019-05-22T08:33:11.502Z,17.02
2019-05-22T08:35:40.839Z,17.80
2019-05-22T08:38:11.420Z,18.62
2019-05-22T08:40:41.107Z,17.53
2019-05-22T08:43:10.134Z,16.37
2019-05-22T08:45:38.880Z,16.27
2019-05-22T08:48:07.915Z,15.28
2019-05-22T08:50:37.552Z,15.40
2019-05-22T08:53:07.004Z,14.80
2019-05-22T08:55:36.225Z,13.90
2019-05-22T08:58:05.915Z,12.75
2019-05-22T09:00:34.757Z,13.63
2019-05-22T09:03:03.285Z,13.95
2019-05-22T09:05:32.403Z,13.40
2019-05-22T09:08:00.893Z,11.85
2019-05-22T09:10:29.632Z,12.27
2019-05-22T09:12:58.151Z,12.80
2019-05-22T09:15:26.661Z,12.00
2019-05-22T09:17:55.172Z,9.87
2019-05-22T09:20:24.015Z,9.73
2019-05-22T09:22:53.116Z,8.63
2019-05-22T09:25:21.732Z,10.35
2019-05-22T09:27:50.499Z,10.70
2019-05-22T09:30:19.314Z,9.90
2019-05-22T09:32:47.887Z,10.67
2019-05-22T09:35:16.802Z,11.12
2019-05-22T09:37:45.302Z,10.57
2019-05-22T09:40:14.042Z,12.82
2019-05-22T09:42:42.807Z,12.20
2019-05-22T09:45:11.589Z,14.40
2019-05-22T09:47:40.086Z,13.00
2019-05-22T09:50:11.152Z,11.78
2019-05-22T09:52:56.280Z,10.60
2019-05-22T09:55:13.103Z,10.37
2019-05-22T09:57:41.657Z,11.00
2019-05-22T10:00:12.420Z,11.25
2019-05-22T10:02:41.758Z,10.80
2019-05-22T10:05:11.247Z,11.95
2019-05-22T10:07:57.097Z,12.33
2019-05-22T10:10:10.662Z,11.60
2019-05-22T10:12:39.321Z,10.43
2019-05-22T10:15:10.459Z,11.40
2019-05-22T10:17:42.363Z,11.95
2019-05-22T10:20:11.841Z,13.03
2019-05-22T10:22:40.419Z,13.10
2019-05-22T10:25:15.488Z,12.33
2019-05-22T10:27:40.069Z,11.93
2019-05-22T10:30:12.035Z,12.23
2019-05-22T10:32:40.618Z,14.60
2019-05-22T10:35:11.114Z,14.58
2019-05-22T10:37:40.223Z,11.80
2019-05-22T10:40:09.509Z,15.37
2019-05-22T10:42:38.009Z,15.80
2019-05-22T10:45:06.954Z,17.27
2019-05-22T10:47:36.189Z,15.53
2019-05-22T10:50:06.726Z,14.85
2019-05-22T10:52:35.280Z,14.50
2019-05-22T10:55:04.916Z,15.07
2019-05-22T10:57:33.877Z,18.43
2019-05-22T11:00:02.367Z,19.82
2019-05-22T11:02:31.778Z,19.13
2019-05-22T11:05:00.343Z,19.60
2019-05-22T11:07:29.666Z,23.90
2019-05-22T11:09:58.240Z,21.33
2019-05-22T11:12:27.341Z,24.00
2019-05-22T11:14:56.713Z,22.47
2019-05-22T11:17:25.457Z,23.00
2019-05-22T11:19:54.021Z,22.40
2019-05-22T11:22:22.635Z,22.57
2019-05-22T11:24:51.297Z,20.37
2019-05-22T11:27:19.854Z,21.13
2019-05-22T11:29:49.370Z,19.50
2019-05-22T11:32:18.222Z,18.03
2019-05-22T11:34:46.896Z,17.30
2019-05-22T11:37:15.610Z,16.37
2019-05-22T11:39:45.366Z,15.73
2019-05-22T11:42:13.978Z,21.15
2019-05-22T11:44:42.485Z,18.17
2019-05-22T11:47:12.093Z,16.07
2019-05-22T11:49:40.660Z,17.60
2019-05-22T11:52:09.268Z,15.93
2019-05-22T11:54:38.039Z,16.40
2019-05-22T11:57:06.506Z,15.70
2019-05-22T11:59:37.016Z,15.57
2019-05-22T12:02:05.546Z,15.17
2019-05-22T12:04:47.249Z,16.37
2019-05-22T12:07:05.440Z,15.17
2019-05-22T12:09:34.416Z,14.00
2019-05-22T12:12:03.361Z,15.50
2019-05-22T12:14:32.129Z,17.10
2019-05-22T12:17:01.154Z,18.37
2019-05-22T12:19:29.878Z,19.67
2019-05-22T12:21:58.402Z,19.10
2019-05-22T12:24:30.267Z,17.50
2019-05-22T12:26:57.569Z,18.63
2019-05-22T12:29:27.098Z,17.10
2019-05-22T12:31:55.677Z,17.63
2019-05-22T12:34:24.445Z,18.40
2019-05-22T12:36:53.038Z,18.20
2019-05-22T12:39:23.482Z,18.63
2019-05-22T12:41:53.076Z,16.73
2019-05-22T12:44:22.017Z,16.80
2019-05-22T12:46:50.848Z,16.40
2019-05-22T12:49:19.588Z,15.87
2019-05-22T12:51:49.409Z,16.63
2019-05-22T12:54:17.866Z,16.43
2019-05-22T12:56:46.439Z,15.97
2019-05-22T12:59:14.989Z,14.90
2019-05-22T13:01:43.825Z,14.40
2019-05-22T13:04:12.875Z,15.63
2019-05-22T13:06:41.647Z,15.03
2019-05-22T13:09:10.754Z,13.60
2019-05-22T13:11:39.906Z,13.93
2019-05-22T13:14:08.553Z,12.70
2019-05-22T13:16:37.795Z,13.80
2019-05-22T13:19:07.113Z,13.47
2019-05-22T13:21:37.845Z,14.00
2019-05-22T13:24:18.869Z,12.77
2019-05-22T13:26:47.625Z,12.00
2019-05-22T13:29:16.337Z,11.20
2019-05-22T13:31:45.500Z,12.60
2019-05-22T13:34:16.691Z,10.93
2019-05-22T13:36:46.521Z,11.60
2019-05-22T13:39:16.730Z,11.00
2019-05-22T13:41:45.586Z,10.80
2019-05-22T13:44:14.994Z,11.37
2019-05-22T13:46:43.769Z,10.13
2019-05-22T13:49:12.406Z,10.10
2019-05-22T13:51:41.143Z,11.07
2019-05-22T13:54:10.454Z,10.73
2019-05-22T13:56:39.194Z,10.07
2019-05-22T13:59:08.232Z,9.93
2019-05-22T14:01:36.896Z,11.10
2019-05-22T14:04:05.578Z,9.87
2019-05-22T14:06:34.519Z,10.13
2019-05-22T14:09:02.980Z,12.03
2019-05-22T14:11:32.026Z,10.67
2019-05-22T14:14:00.570Z,12.40
2019-05-22T14:16:29.442Z,10.60
2019-05-22T14:18:58.211Z,11.27
2019-05-22T14:21:26.782Z,8.77
2019-05-22T14:23:55.255Z,8.43
2019-05-22T14:26:23.761Z,8.87
2019-05-22T14:28:52.279Z,7.87
2019-05-22T14:31:21.038Z,8.73
2019-05-22T14:33:49.773Z,8.93
2019-05-22T14:36:18.846Z,7.97
2019-05-22T14:38:47.457Z,8.90
2019-05-22T14:41:16.348Z,7.77
2019-05-22T14:43:44.888Z,6.57
2019-05-22T14:46:13.453Z,9.77
2019-05-22T14:48:42.215Z,9.50
2019-05-22T14:51:11.062Z,9.80
2019-05-22T14:53:40.105Z,9.50
2019-05-22T14:56:11.001Z,8.93
2019-05-22T14:58:39.841Z,8.27
2019-05-22T15:01:09.975Z,8.87
2019-05-22T15:03:38.582Z,8.73
2019-05-22T15:06:07.420Z,8.67
2019-05-22T15:08:35.951Z,9.13
2019-05-22T15:11:05.248Z,8.97
2019-05-22T15:13:33.881Z,7.07
2019-05-22T15:16:02.351Z,7.83
2019-05-22T15:18:30.982Z,7.10
2019-05-22T15:21:00.092Z,7.90
2019-05-22T15:23:28.789Z,8.00
2019-05-22T15:25:57.395Z,7.93
2019-05-22T15:28:27.016Z,7.43
2019-05-22T15:30:55.616Z,6.50
2019-05-22T15:33:24.681Z,5.60
2019-05-22T15:35:54.186Z,4.57
2019-05-22T15:38:22.916Z,5.97
2019-05-22T15:40:53.176Z,5.20
2019-05-22T15:43:23.618Z,6.20
2019-05-22T15:45:52.913Z,6.13
2019-05-22T15:48:28.701Z,5.67
2019-05-22T15:50:59.869Z,5.40
2019-05-22T15:53:29.298Z,4.20
2019-05-22T15:55:57.892Z,4.90
2019-05-22T15:58:28.029Z,5.20
2019-05-22T16:00:58.036Z,4.55
2019-05-22T16:03:28.209Z,5.00
2019-05-22T16:05:58.873Z,4.40
2019-05-22T16:08:27.633Z,4.87
2019-05-22T16:11:00.374Z,4.17
2019-05-22T16:13:32.475Z,5.00
2019-05-22T16:16:03.920Z,5.58
2019-05-22T16:18:34.484Z,5.33
2019-05-22T16:21:04.856Z,4.60
2019-05-22T16:23:35.661Z,4.63
2019-05-22T16:26:06.304Z,4.78
2019-05-22T16:28:36.240Z,4.10
2019-05-22T16:31:06.788Z,4.70
2019-05-22T16:33:38.086Z,4.57
2019-05-22T16:36:06.554Z,3.93
2019-05-22T16:38:36.508Z,4.77
2019-05-22T16:41:05.595Z,4.97
2019-05-22T16:43:48.661Z,5.07
2019-05-22T16:46:09.500Z,4.77
2019-05-22T16:48:38.721Z,5.00
2019-05-22T16:51:11.765Z,5.57
2019-05-22T16:53:40.499Z,5.50
2019-05-22T16:56:09.031Z,5.60
2019-05-22T16:58:38.153Z,6.43
2019-05-22T17:01:06.955Z,5.00
2019-05-22T17:03:35.994Z,5.77
2019-05-22T17:06:05.308Z,7.17
2019-05-22T17:08:34.281Z,6.80
2019-05-22T17:11:04.268Z,7.00
2019-05-22T17:13:32.937Z,5.90
2019-05-22T17:16:01.542Z,6.13
2019-05-22T17:18:46.106Z,6.43
2019-05-22T17:21:02.851Z,6.00
2019-05-22T17:23:31.337Z,7.37
2019-05-22T17:26:00.241Z,6.67
2019-05-22T17:28:29.605Z,7.97
2019-05-22T17:30:58.813Z,6.33
2019-05-22T17:33:27.403Z,5.80
2019-05-22T17:35:56.678Z,6.80
2019-05-22T17:38:27.255Z,6.90
2019-05-22T17:40:55.930Z,7.10
2019-05-22T17:43:25.657Z,7.20
2019-05-22T17:45:54.388Z,7.50
2019-05-22T17:48:23.109Z,7.20
2019-05-22T17:50:51.916Z,7.87
2019-05-22T17:53:20.949Z,7.60
2019-05-22T17:55:49.937Z,6.80
2019-05-22T17:58:18.463Z,6.90
2019-05-22T18:00:51.988Z,7.60
2019-05-22T18:03:20.529Z,8.60
2019-05-22T18:05:48.996Z,7.87
2019-05-22T18:08:17.851Z,7.50
2019-05-22T18:10:48.636Z,9.73
2019-05-22T18:13:17.200Z,8.07
2019-05-22T18:15:46.776Z,9.13
2019-05-22T18:18:15.786Z,8.70
2019-05-22T18:20:44.431Z,7.87
2019-05-22T18:23:13.427Z,9.13
2019-05-22T18:25:43.443Z,8.60
2019-05-22T18:28:13.260Z,7.77
2019-05-22T18:30:45.380Z,8.10
2019-05-22T18:33:14.021Z,7.77
2019-05-22T18:35:42.597Z,8.70
2019-05-22T18:38:11.129Z,7.90
2019-05-22T18:40:39.612Z,7.80
2019-05-22T18:43:08.628Z,7.37
2019-05-22T18:45:37.361Z,7.30
2019-05-22T18:48:06.447Z,8.13
2019-05-22T18:50:35.690Z,7.00
2019-05-22T18:53:04.665Z,7.83
2019-05-22T18:55:33.328Z,7.80
2019-05-22T18:58:02.205Z,8.60
2019-05-22T19:00:32.405Z,8.07
2019-05-22T19:03:00.883Z,8.17
2019-05-22T19:05:30.982Z,9.20
2019-05-22T19:07:59.456Z,8.20
2019-05-22T19:10:28.700Z,9.17
2019-05-22T19:12:57.915Z,8.67
2019-05-22T19:15:26.498Z,9.37
2019-05-22T19:17:55.303Z,9.67
2019-05-22T19:20:24.073Z,9.30
2019-05-22T19:23:00.465Z,8.80
2019-05-22T19:25:23.516Z,9.87
2019-05-22T19:27:52.057Z,9.90
2019-05-22T19:30:21.694Z,9.93
2019-05-22T19:32:50.820Z,9.50
2019-05-22T19:35:19.314Z,8.93
2019-05-22T19:37:48.820Z,10.17
2019-05-22T19:40:18.556Z,9.13
2019-05-22T19:42:47.464Z,9.93
2019-05-22T19:45:16.734Z,9.43
2019-05-22T19:47:50.502Z,8.90
2019-05-22T19:50:23.234Z,9.67
2019-05-22T19:52:51.944Z,10.80
2019-05-22T19:55:21.503Z,11.33
2019-05-22T19:57:51.314Z,11.00
2019-05-22T20:00:21.161Z,10.07
2019-05-22T20:02:50.984Z,11.00
2019-05-22T20:05:20.936Z,10.97
2019-05-22T20:07:49.865Z,12.50
2019-05-22T20:10:18.455Z,12.03
2019-05-22T20:12:47.164Z,11.63
2019-05-22T20:15:16.985Z,10.57
2019-05-22T20:17:45.619Z,12.30
2019-05-22T20:20:15.924Z,11.80
2019-05-22T20:22:44.459Z,11.57
2019-05-22T20:25:13.978Z,11.40
2019-05-22T20:27:42.579Z,10.37
2019-05-22T20:30:13.356Z,13.27
2019-05-22T20:32:41.910Z,10.73
2019-05-22T20:35:11.339Z,12.13
2019-05-22T20:37:40.810Z,11.90
2019-05-22T20:40:10.549Z,12.07
2019-05-22T20:42:39.470Z,13.23
2019-05-22T20:45:10.774Z,12.07
2019-05-22T20:47:40.959Z,12.80
2019-05-22T20:50:11.361Z,13.23
2019-05-22T20:52:40.002Z,13.33
2019-05-22T20:55:09.611Z,13.20
2019-05-22T20:57:38.146Z,12.77
2019-05-22T21:00:10.156Z,13.20
2019-05-22T21:02:40.264Z,11.80
2019-05-22T21:05:09.453Z,11.37
2019-05-22T21:07:39.824Z,12.50
2019-05-22T21:10:08.938Z,12.90
2019-05-22T21:12:37.802Z,12.43
2019-05-22T21:15:07.243Z,12.13
2019-05-22T21:17:37.486Z,12.90
2019-05-22T21:20:09.297Z,12.00
2019-05-22T21:22:38.438Z,13.00
2019-05-22T21:25:07.812Z,12.30
2019-05-22T21:27:38.013Z,11.90
2019-05-22T21:30:08.760Z,11.90
2019-05-22T21:32:37.507Z,12.13
2019-05-22T21:35:08.074Z,12.10
2019-05-22T21:37:37.113Z,11.93
2019-05-22T21:40:06.747Z,11.60
2019-05-22T21:42:37.333Z,12.50
2019-05-22T21:45:11.099Z,12.87
2019-05-22T21:47:41.605Z,11.90
2019-05-22T21:50:11.702Z,12.33
2019-05-22T21:52:40.269Z,11.97
2019-05-22T21:55:11.332Z,13.90
2019-05-22T21:57:40.441Z,11.73
2019-05-22T22:00:16.016Z,12.90
2019-05-22T22:02:46.886Z,13.13
2019-05-22T22:05:16.193Z,12.57
2019-05-22T22:07:45.284Z,13.40
2019-05-22T22:10:15.268Z,12.37
2019-05-22T22:12:44.433Z,12.50
2019-05-22T22:15:14.753Z,12.20
2019-05-22T22:17:43.720Z,12.50
2019-05-22T22:20:12.878Z,13.00
2019-05-22T22:22:41.815Z,11.73
2019-05-22T22:25:11.099Z,12.83
2019-05-22T22:27:39.764Z,12.77
2019-05-22T22:30:17.457Z,11.57
2019-05-22T22:32:45.954Z,12.10
2019-05-22T22:35:15.860Z,12.10
2019-05-22T22:37:46.406Z,13.17
2019-05-22T22:40:17.886Z,13.30
2019-05-22T22:42:47.025Z,12.10
2019-05-22T22:45:35.508Z,12.73
2019-05-22T22:48:05.139Z,12.47
2019-05-22T22:50:34.572Z,12.47
2019-05-22T22:53:04.017Z,13.47
2019-05-22T22:55:33.826Z,11.70
2019-05-22T22:58:15.996Z,11.73
2019-05-22T23:00:34.152Z,11.70
2019-05-22T23:03:04.246Z,12.37
2019-05-22T23:05:34.317Z,13.03
2019-05-22T23:08:02.891Z,12.87
2019-05-22T23:10:32.593Z,11.83
2019-05-22T23:13:01.258Z,11.90
2019-05-22T23:15:30.003Z,13.10
2019-05-22T23:18:00.087Z,13.20
2019-05-22T23:20:28.911Z,12.23
2019-05-22T23:22:57.302Z,13.33
2019-05-22T23:25:25.941Z,12.70
2019-05-22T23:27:55.608Z,13.00
2019-05-22T23:30:24.081Z,13.53
2019-05-22T23:32:54.412Z,15.10
2019-05-22T23:35:22.957Z,14.00
2019-05-22T23:37:51.821Z,14.10
2019-05-22T23:40:26.749Z,14.70
2019-05-22T23:42:55.322Z,14.80
2019-05-22T23:45:24.438Z,13.38
2019-05-22T23:48:02.341Z,14.20
2019-05-22T23:50:33.398Z,14.73
2019-05-22T23:53:02.366Z,13.20
2019-05-22T23:55:32.197Z,12.97
2019-05-22T23:58:00.708Z,13.13
